Time;durP1;ratioP1;P1;durP2;ratioP2;P2;SDS_P1;SDS_P2;PMS_P1;PMS_P2;Temp;Humidity;BMP_temperature;BMP_pressure;BME280_temperature;BME280_humidity;BME280_pressure;Samples;Min_cycle;Max_cycle;Signal;HPM_P1;HPM_P2
2021/12/11 00:00:21;;;;;;;31.02;16.95;;;2.80;99.90;;;;;;5072058;28;20169;-45
2021/12/11 00:03:00;;;;;;;25.40;16.45;;;2.70;99.90;;;;;;5072035;28;20166;-46
2021/12/11 00:05:26;;;;;;;28.15;16.52;;;2.70;99.90;;;;;;5071974;28;20162;-45
2021/12/11 00:07:52;;;;;;;27.38;15.48;;;2.70;99.90;;;;;;5072447;28;20204;-45
2021/12/11 00:10:27;;;;;;;26.10;15.50;;;2.70;99.90;;;;;;5071454;28;20586;-45
2021/12/11 00:12:59;;;;;;;26.67;14.65;;;2.70;99.90;;;;;;5072185;28;20161;-45
2021/12/11 00:15:29;;;;;;;29.10;16.60;;;2.70;99.90;;;;;;5072447;28;20577;-45
2021/12/11 00:18:04;;;;;;;31.85;17.17;;;2.60;99.90;;;;;;5072352;28;20522;-45
2021/12/11 00:20:33;;;;;;;34.60;17.67;;;2.60;99.90;;;;;;5071776;28;20166;-46
2021/12/11 00:23:00;;;;;;;37.67;17.55;;;2.50;99.90;;;;;;5071657;28;20641;-45
2021/12/11 00:25:26;;;;;;;38.25;19.75;;;2.50;99.90;;;;;;5072074;28;20625;-45
2021/12/11 00:28:01;;;;;;;36.95;19.92;;;2.50;99.90;;;;;;5072078;28;20520;-45
2021/12/11 00:30:31;;;;;;;35.47;17.77;;;2.50;99.90;;;;;;5071624;28;20207;-45
2021/12/11 00:33:04;;;;;;;54.92;20.25;;;2.50;99.90;;;;;;5071556;28;20198;-45
2021/12/11 00:35:30;;;;;;;72.93;20.60;;;2.50;99.90;;;;;;5071577;28;20173;-45
2021/12/11 00:38:09;;;;;;;63.20;21.58;;;2.40;99.90;;;;;;5071920;28;20169;-45
2021/12/11 00:40:36;;;;;;;64.60;21.45;;;2.50;99.90;;;;;;5071577;28;20185;-45
2021/12/11 00:43:04;;;;;;;53.35;21.77;;;2.50;99.90;;;;;;5071809;28;20201;-45
2021/12/11 00:45:34;;;;;;;54.22;21.35;;;2.50;99.90;;;;;;5071589;28;20159;-46
2021/12/11 00:48:05;;;;;;;48.55;21.67;;;2.40;99.90;;;;;;5071489;28;20170;-46
2021/12/11 00:50:36;;;;;;;64.35;23.67;;;2.40;99.90;;;;;;5071763;28;20204;-45
2021/12/11 00:53:12;;;;;;;47.00;21.48;;;2.40;99.90;;;;;;5071468;28;20193;-45
2021/12/11 00:55:46;;;;;;;92.53;25.67;;;2.40;99.90;;;;;;5071447;28;20222;-46
2021/12/11 00:58:24;;;;;;;84.65;25.38;;;2.40;99.90;;;;;;5071430;28;20205;-45
2021/12/11 01:01:00;;;;;;;70.68;23.88;;;2.40;99.90;;;;;;5071335;28;20688;-45
2021/12/11 01:03:37;;;;;;;64.70;24.77;;;3.50;99.90;;;;;;5071442;28;20174;-44
2021/12/11 01:06:12;;;;;;;122.85;30.55;;;2.50;99.90;;;;;;5071383;28;20161;-45
2021/12/11 01:08:44;;;;;;;88.90;25.90;;;2.50;99.90;;;;;;5071078;28;20654;-45
2021/12/11 01:11:20;;;;;;;70.80;22.70;;;2.60;99.90;;;;;;5071519;28;20182;-45
2021/12/11 01:14:05;;;;;;;57.17;24.48;;;2.60;99.90;;;;;;5071317;28;20696;-44
2021/12/11 01:16:31;;;;;;;55.95;23.63;;;2.60;99.90;;;;;;5071540;28;20240;-45
2021/12/11 01:19:00;;;;;;;48.83;24.17;;;2.70;99.90;;;;;;5071180;28;20170;-44
2021/12/11 01:26:31;;;;;;;50.15;24.63;;;2.80;99.90;;;;;;5074999;28;20636;-45
2021/12/11 01:28:57;;;;;;;55.85;26.00;;;2.80;99.90;;;;;;5074663;28;20247;-45
2021/12/11 01:31:23;;;;;;;51.30;24.63;;;2.90;99.90;;;;;;5074887;28;20166;-45
2021/12/11 01:33:51;;;;;;;51.38;25.23;;;2.90;99.90;;;;;;5074968;28;20240;-45
2021/12/11 01:36:16;;;;;;;53.17;25.05;;;2.90;99.90;;;;;;5074575;28;20528;-45
2021/12/11 01:38:42;;;;;;;52.67;24.95;;;2.90;99.90;;;;;;5074562;28;20168;-45
2021/12/11 01:41:16;;;;;;;51.10;25.73;;;2.90;99.90;;;;;;5074528;28;20618;-45
2021/12/11 01:43:44;;;;;;;41.42;20.85;;;3.00;99.90;;;;;;5074424;28;20618;-45
2021/12/11 01:46:10;;;;;;;48.53;23.63;;;3.00;99.90;;;;;;5074438;28;20173;-45
2021/12/11 01:48:47;;;;;;;44.70;23.40;;;3.00;99.90;;;;;;5074246;28;20507;-45
2021/12/11 01:51:38;;;;;;;42.20;23.02;;;2.90;99.90;;;;;;5074238;28;20245;-45
2021/12/11 01:54:13;;;;;;;51.65;23.55;;;2.90;99.90;;;;;;5074524;28;20182;-45
2021/12/11 01:56:42;;;;;;;45.28;24.50;;;2.90;99.90;;;;;;5074277;28;20188;-45
2021/12/11 01:59:19;;;;;;;41.78;22.90;;;2.90;99.90;;;;;;5074294;28;20212;-45
2021/12/11 02:02:01;;;;;;;38.55;21.65;;;2.90;99.90;;;;;;5074063;28;20239;-45
2021/12/11 02:04:28;;;;;;;44.25;22.63;;;2.90;99.90;;;;;;5074305;28;20170;-44
2021/12/11 02:06:55;;;;;;;45.70;22.70;;;3.00;99.90;;;;;;5074605;28;20181;-46
2021/12/11 02:09:30;;;;;;;43.60;23.10;;;2.90;99.90;;;;;;5073730;28;20226;-46
2021/12/11 02:12:35;;;;;;;44.40;23.75;;;2.90;99.90;;;;;;5073875;28;20177;-45
2021/12/11 02:15:04;;;;;;;41.58;22.45;;;2.90;99.90;;;;;;5072449;28;20231;-47
2021/12/11 02:17:35;;;;;;;53.25;25.38;;;2.90;99.90;;;;;;5073732;28;20166;-45
2021/12/11 02:20:07;;;;;;;47.28;22.40;;;2.90;99.90;;;;;;5073991;28;20559;-45
2021/12/11 02:22:40;;;;;;;47.75;24.17;;;3.00;99.90;;;;;;5073538;28;20166;-45
2021/12/11 02:25:29;;;;;;;40.67;20.17;;;2.80;99.90;;;;;;5073593;28;20240;-45
2021/12/11 02:28:12;;;;;;;49.60;24.52;;;2.90;99.90;;;;;;5074146;28;20514;-44
2021/12/11 02:31:06;;;;;;;47.95;24.35;;;2.90;99.90;;;;;;5073752;28;20182;-46
2021/12/11 02:33:40;;;;;;;48.63;23.98;;;2.90;99.90;;;;;;5073439;28;20162;-45
2021/12/11 02:36:14;;;;;;;45.45;24.58;;;2.90;99.90;;;;;;5073672;28;20511;-45
2021/12/11 02:38:48;;;;;;;41.13;21.83;;;2.90;99.90;;;;;;5073559;28;20257;-45
2021/12/11 02:41:48;;;;;;;50.15;24.33;;;2.90;99.90;;;;;;5073297;28;20170;-46
2021/12/11 02:44:37;;;;;;;44.88;22.90;;;2.90;99.90;;;;;;5067541;28;20200;-45
2021/12/11 02:47:07;;;;;;;46.88;25.30;;;2.90;99.90;;;;;;5073411;28;20174;-44
2021/12/11 02:49:58;;;;;;;43.63;23.80;;;2.90;99.90;;;;;;5073036;28;20679;-44
2021/12/11 02:52:45;;;;;;;41.42;22.88;;;2.90;99.90;;;;;;5073629;28;20170;-47
2021/12/11 02:55:19;;;;;;;49.78;24.75;;;2.90;99.90;;;;;;5073221;28;20174;-45
2021/12/11 02:57:53;;;;;;;41.05;21.98;;;2.90;99.90;;;;;;5072886;28;20188;-45
2021/12/11 03:00:24;;;;;;;38.97;21.35;;;2.90;99.90;;;;;;5073166;28;20177;-45
2021/12/11 03:03:02;;;;;;;46.13;23.33;;;2.80;99.90;;;;;;5072906;28;20173;-45
2021/12/11 03:05:38;;;;;;;41.83;22.20;;;2.90;99.90;;;;;;5073077;28;20176;-44
2021/12/11 03:08:07;;;;;;;48.00;22.08;;;2.80;99.90;;;;;;5073122;28;20197;-45
2021/12/11 03:10:35;;;;;;;44.47;23.38;;;2.80;99.90;;;;;;5072594;28;20248;-45
2021/12/11 03:13:01;;;;;;;41.45;22.08;;;2.90;99.90;;;;;;5072730;28;20197;-45
2021/12/11 03:15:26;;;;;;;42.75;23.17;;;2.80;99.90;;;;;;5072621;28;20164;-45
2021/12/11 03:17:52;;;;;;;41.25;23.00;;;2.80;99.90;;;;;;5073075;28;20170;-45
2021/12/11 03:20:21;;;;;;;48.17;22.63;;;2.80;99.90;;;;;;5072811;28;20178;-45
2021/12/11 03:22:47;;;;;;;39.42;19.92;;;2.80;99.90;;;;;;5072673;28;20608;-45
2021/12/11 03:25:17;;;;;;;52.40;25.08;;;2.70;99.90;;;;;;5072449;28;20253;-45
2021/12/11 03:27:43;;;;;;;45.67;22.42;;;2.80;99.90;;;;;;5072404;28;20162;-45
2021/12/11 03:30:13;;;;;;;54.13;23.90;;;2.80;99.90;;;;;;5072568;28;20240;-45
2021/12/11 03:32:39;;;;;;;45.63;23.40;;;2.80;99.90;;;;;;5072374;28;20199;-45
2021/12/11 03:35:07;;;;;;;42.85;24.50;;;2.80;99.90;;;;;;5072253;28;20597;-44
2021/12/11 03:37:33;;;;;;;49.53;25.17;;;2.80;99.90;;;;;;5072271;28;20633;-44
2021/12/11 03:39:59;;;;;;;52.28;25.40;;;2.80;99.90;;;;;;5072234;28;20177;-45
2021/12/11 03:42:30;;;;;;;61.03;25.27;;;2.80;99.90;;;;;;5072571;28;20210;-44
2021/12/11 03:44:58;;;;;;;48.47;26.05;;;2.80;99.90;;;;;;5072090;28;20241;-45
2021/12/11 03:47:31;;;;;;;53.05;26.30;;;2.80;99.90;;;;;;5072505;28;20173;-44
2021/12/11 03:49:56;;;;;;;49.30;25.92;;;2.90;99.90;;;;;;5072092;28;20208;-44
2021/12/11 03:52:22;;;;;;;57.33;27.83;;;2.80;99.90;;;;;;5072396;28;20165;-44
2021/12/11 03:54:52;;;;;;;54.17;26.80;;;2.80;99.90;;;;;;5072133;28;20201;-44
2021/12/11 03:57:21;;;;;;;56.15;26.98;;;2.80;99.90;;;;;;5072027;28;20161;-44
2021/12/11 03:59:48;;;;;;;49.50;26.27;;;2.80;99.90;;;;;;5072050;28;20170;-44
2021/12/11 04:02:18;;;;;;;55.65;27.20;;;2.80;99.90;;;;;;5071878;28;20606;-44
2021/12/11 04:04:48;;;;;;;58.22;29.38;;;2.80;99.90;;;;;;5071910;28;20217;-44
2021/12/11 04:07:21;;;;;;;56.38;25.80;;;2.90;99.90;;;;;;5071954;28;20193;-44
2021/12/11 04:09:46;;;;;;;61.53;29.85;;;2.80;99.90;;;;;;5071585;28;20222;-45
2021/12/11 04:12:14;;;;;;;58.50;28.63;;;2.80;99.90;;;;;;5071911;28;20695;-45
2021/12/11 04:14:43;;;;;;;61.33;29.10;;;2.80;99.90;;;;;;5071739;28;20253;-45
2021/12/11 04:17:11;;;;;;;70.72;29.75;;;2.90;99.90;;;;;;5072107;28;20192;-45
2021/12/11 04:19:39;;;;;;;63.15;29.75;;;2.80;99.90;;;;;;5071785;28;20279;-45
2021/12/11 04:22:05;;;;;;;50.40;25.98;;;2.90;99.90;;;;;;5071886;28;20257;-44
2021/12/11 04:24:32;;;;;;;56.90;27.15;;;2.80;99.90;;;;;;5071952;28;20170;-46
2021/12/11 04:27:01;;;;;;;61.92;29.88;;;2.90;99.90;;;;;;5071787;28;20158;-45
2021/12/11 04:29:28;;;;;;;54.38;26.45;;;2.80;99.90;;;;;;5071735;28;20290;-45
2021/12/11 04:31:55;;;;;;;53.78;26.35;;;2.80;99.90;;;;;;5072052;28;20158;-46
2021/12/11 04:34:24;;;;;;;57.47;28.08;;;2.90;99.90;;;;;;5071584;28;20519;-46
2021/12/11 04:37:00;;;;;;;56.22;28.25;;;2.90;99.90;;;;;;5071910;28;20232;-46
2021/12/11 04:39:28;;;;;;;56.10;25.80;;;2.90;99.90;;;;;;5072136;28;20184;-47
2021/12/11 04:42:01;;;;;;;54.63;25.67;;;2.90;99.90;;;;;;5072197;28;20174;-45
2021/12/11 04:44:36;;;;;;;60.30;27.13;;;2.90;99.90;;;;;;5071601;28;20186;-47
2021/12/11 04:47:07;;;;;;;62.47;28.30;;;2.90;99.90;;;;;;5071873;28;20197;-46
2021/12/11 04:49:40;;;;;;;59.40;27.08;;;2.90;99.90;;;;;;5071675;28;20267;-46
2021/12/11 04:52:18;;;;;;;59.22;27.67;;;2.90;99.90;;;;;;5071817;28;20166;-46
2021/12/11 04:55:08;;;;;;;55.53;26.52;;;2.90;99.90;;;;;;5071378;28;20645;-45
2021/12/11 05:00:15;;;;;;;57.72;28.35;;;2.90;99.90;;;;;;5075243;28;20158;-45
2021/12/11 05:03:11;;;;;;;54.70;26.00;;;2.90;99.90;;;;;;5075461;28;20223;-45
2021/12/11 05:13:13;;;;;;;55.35;25.30;;;2.80;99.90;;;;;;5075324;28;20501;-45
2021/12/11 05:15:42;;;;;;;54.10;25.70;;;2.80;99.90;;;;;;5075027;28;20204;-46
2021/12/11 05:18:12;;;;;;;58.55;29.05;;;2.80;99.90;;;;;;5074904;28;20630;-45
2021/12/11 05:20:39;;;;;;;58.20;24.42;;;2.80;99.90;;;;;;5074880;28;20173;-45
2021/12/11 05:23:05;;;;;;;61.70;26.50;;;2.80;99.90;;;;;;5074818;28;20165;-46
2021/12/11 05:25:30;;;;;;;56.22;26.05;;;2.80;99.90;;;;;;5074910;28;20245;-45
2021/12/11 05:27:57;;;;;;;49.25;22.02;;;2.80;99.90;;;;;;5074762;28;20173;-44
2021/12/11 05:30:32;;;;;;;58.42;25.75;;;2.90;99.90;;;;;;5074953;28;20212;-47
2021/12/11 05:32:59;;;;;;;61.20;24.65;;;2.80;99.90;;;;;;5074724;28;20162;-44
2021/12/11 05:35:27;;;;;;;56.40;25.25;;;2.90;99.90;;;;;;5074826;28;20177;-46
2021/12/11 05:37:53;;;;;;;58.13;24.75;;;2.90;99.90;;;;;;5074896;28;20162;-45
2021/12/11 05:40:21;;;;;;;58.15;25.05;;;3.00;99.90;;;;;;5074533;28;20169;-46
2021/12/11 05:42:47;;;;;;;56.65;26.13;;;2.90;99.90;;;;;;5074364;28;20166;-45
2021/12/11 05:45:13;;;;;;;51.85;24.73;;;3.00;99.90;;;;;;5074411;28;20166;-46
2021/12/11 05:47:40;;;;;;;58.50;25.77;;;3.00;99.90;;;;;;5074345;28;20240;-45
2021/12/11 05:50:10;;;;;;;62.28;25.38;;;3.00;99.90;;;;;;5074183;28;20209;-45
2021/12/11 05:52:36;;;;;;;69.32;26.90;;;3.00;99.90;;;;;;5074349;28;20170;-45
2021/12/11 05:55:08;;;;;;;62.13;26.75;;;3.00;99.90;;;;;;5074220;28;20576;-44
2021/12/11 05:57:36;;;;;;;66.32;26.00;;;3.10;99.90;;;;;;5074440;28;20178;-46
2021/12/11 06:00:08;;;;;;;64.80;27.85;;;3.10;99.90;;;;;;5074063;28;20170;-45
2021/12/11 06:02:34;;;;;;;68.40;28.38;;;3.20;99.90;;;;;;5074121;28;20176;-45
2021/12/11 06:05:00;;;;;;;67.13;29.85;;;3.30;99.90;;;;;;5074003;28;20177;-45
2021/12/11 06:07:28;;;;;;;59.63;27.50;;;3.20;99.90;;;;;;5072610;28;20180;-45
2021/12/11 06:09:59;;;;;;;59.25;26.33;;;3.20;99.90;;;;;;5074035;28;20232;-46
2021/12/11 06:12:25;;;;;;;68.35;26.83;;;3.30;99.90;;;;;;5074269;28;20163;-46
2021/12/11 06:14:51;;;;;;;65.90;26.45;;;3.30;99.90;;;;;;5073903;28;20727;-45
2021/12/11 06:17:27;;;;;;;58.28;26.90;;;3.30;99.90;;;;;;5073752;28;20170;-46
2021/12/11 06:19:55;;;;;;;63.35;27.77;;;3.30;99.90;;;;;;5074083;28;20169;-46
2021/12/11 06:22:26;;;;;;;60.25;28.52;;;3.30;99.90;;;;;;5073939;28;20173;-45
2021/12/11 06:24:53;;;;;;;61.03;26.42;;;3.30;99.90;;;;;;5073928;28;20197;-45
2021/12/11 06:27:19;;;;;;;68.18;28.23;;;3.30;99.90;;;;;;5073510;28;20644;-45
2021/12/11 06:29:45;;;;;;;67.65;29.02;;;3.40;99.90;;;;;;5073497;28;20210;-45
2021/12/11 06:32:11;;;;;;;65.95;29.23;;;3.40;99.90;;;;;;5073537;28;20165;-44
2021/12/11 06:34:36;;;;;;;65.00;27.35;;;3.40;99.90;;;;;;5073513;28;20288;-46
2021/12/11 06:37:05;;;;;;;60.88;27.95;;;3.40;99.90;;;;;;5073433;28;20166;-44
2021/12/11 06:39:31;;;;;;;62.03;28.42;;;3.50;99.90;;;;;;5073448;28;20630;-45
2021/12/11 06:42:00;;;;;;;63.60;28.00;;;3.40;99.90;;;;;;5073546;28;20176;-44
2021/12/11 06:44:28;;;;;;;63.90;27.88;;;3.50;99.90;;;;;;5073570;28;20211;-44
2021/12/11 06:46:59;;;;;;;56.85;26.65;;;3.70;99.90;;;;;;5073633;28;20158;-45
2021/12/11 06:49:26;;;;;;;59.55;27.88;;;3.50;99.90;;;;;;5073509;28;20197;-44
2021/12/11 06:51:52;;;;;;;68.63;28.92;;;3.60;99.90;;;;;;5073467;28;20170;-44
2021/12/11 06:54:18;;;;;;;61.38;27.25;;;3.60;99.90;;;;;;5073151;28;20254;-46
2021/12/11 06:56:44;;;;;;;66.13;29.30;;;3.60;99.90;;;;;;5073021;28;20174;-44
2021/12/11 06:59:10;;;;;;;60.13;29.60;;;3.60;99.90;;;;;;5072955;28;20166;-45
2021/12/11 07:01:36;;;;;;;66.97;30.00;;;3.60;99.90;;;;;;5072894;28;20249;-45
2021/12/11 07:04:06;;;;;;;63.58;28.88;;;3.70;99.90;;;;;;5072922;28;20201;-45
2021/12/11 07:06:33;;;;;;;58.05;28.42;;;3.70;99.90;;;;;;5073188;28;20173;-46
2021/12/11 07:09:00;;;;;;;60.65;28.27;;;3.70;99.90;;;;;;5072899;28;20230;-45
2021/12/11 07:11:26;;;;;;;60.92;27.10;;;3.70;99.90;;;;;;5073067;28;20166;-45
2021/12/11 07:13:54;;;;;;;55.92;26.85;;;3.70;99.90;;;;;;5073036;28;20166;-44
2021/12/11 07:16:19;;;;;;;63.22;27.63;;;3.60;99.90;;;;;;5072609;28;20178;-45
2021/12/11 07:18:45;;;;;;;57.70;28.52;;;3.70;99.90;;;;;;5071889;28;20249;-45
2021/12/11 07:21:11;;;;;;;60.42;26.77;;;3.70;99.90;;;;;;5072483;28;20220;-46
2021/12/11 07:23:41;;;;;;;63.63;28.02;;;3.70;99.90;;;;;;5072730;28;20181;-46
2021/12/11 07:26:15;;;;;;;60.50;27.98;;;3.70;99.90;;;;;;5072770;28;20264;-43
2021/12/11 07:28:46;;;;;;;56.25;28.50;;;3.70;99.90;;;;;;5072594;28;20523;-45
2021/12/11 07:31:12;;;;;;;62.75;26.77;;;3.70;99.90;;;;;;5072744;28;20177;-47
2021/12/11 07:33:38;;;;;;;59.75;26.52;;;3.70;99.90;;;;;;5072713;28;20166;-45
2021/12/11 07:36:04;;;;;;;66.20;28.45;;;3.70;99.90;;;;;;5072422;28;20641;-44
2021/12/11 07:38:32;;;;;;;54.00;26.70;;;3.80;99.90;;;;;;5072218;28;20300;-44
2021/12/11 07:41:02;;;;;;;63.17;28.50;;;3.80;99.90;;;;;;5072239;28;20169;-43
2021/12/11 07:43:28;;;;;;;64.20;28.40;;;3.80;99.90;;;;;;5072260;28;20185;-44
2021/12/11 07:45:56;;;;;;;57.05;26.08;;;3.90;99.90;;;;;;5072514;28;20177;-44
2021/12/11 07:48:22;;;;;;;62.65;29.38;;;3.90;99.90;;;;;;5072440;28;20174;-44
2021/12/11 07:50:48;;;;;;;61.90;29.00;;;3.90;99.90;;;;;;5070897;28;20170;-45
2021/12/11 07:53:15;;;;;;;53.17;26.33;;;3.90;99.90;;;;;;5072168;28;20234;-44
2021/12/11 07:55:41;;;;;;;53.30;25.77;;;3.90;99.90;;;;;;5072100;28;20169;-45
2021/12/11 07:58:07;;;;;;;65.40;27.52;;;3.90;99.90;;;;;;5071988;28;20166;-44
2021/12/11 08:00:37;;;;;;;60.78;27.38;;;4.00;99.90;;;;;;5071988;28;20660;-44
2021/12/11 08:03:05;;;;;;;56.65;26.75;;;4.00;99.90;;;;;;5071987;28;20204;-44
2021/12/11 08:05:31;;;;;;;60.10;27.05;;;4.00;99.90;;;;;;5072186;28;20227;-45
2021/12/11 08:08:00;;;;;;;50.90;24.80;;;4.00;99.90;;;;;;5071995;28;20157;-44
2021/12/11 08:10:27;;;;;;;48.97;25.05;;;4.00;99.90;;;;;;5071973;28;20313;-44
2021/12/11 08:12:53;;;;;;;54.50;26.42;;;4.10;99.90;;;;;;5072275;28;20167;-46
2021/12/11 08:15:19;;;;;;;56.05;26.05;;;4.00;99.90;;;;;;5071882;28;20189;-46
2021/12/11 08:17:50;;;;;;;56.42;26.23;;;4.10;99.90;;;;;;5071731;28;20177;-45
2021/12/11 08:20:16;;;;;;;54.95;26.48;;;4.00;99.90;;;;;;5072185;28;20181;-45
2021/12/11 08:22:41;;;;;;;57.40;28.00;;;4.00;99.90;;;;;;5071996;28;20170;-46
2021/12/11 08:25:07;;;;;;;57.92;28.45;;;4.10;99.90;;;;;;5071889;28;20166;-45
2021/12/11 08:27:34;;;;;;;63.95;28.25;;;4.10;99.90;;;;;;5071912;28;20166;-47
2021/12/11 08:30:00;;;;;;;59.08;28.35;;;4.10;99.90;;;;;;5072257;28;20202;-48
2021/12/11 08:32:26;;;;;;;66.90;28.10;;;4.10;99.90;;;;;;5076089;28;20257;-45
2021/12/11 08:34:53;;;;;;;63.13;27.88;;;4.10;99.90;;;;;;5076411;28;20196;-45
2021/12/11 08:37:21;;;;;;;64.25;27.35;;;4.20;99.90;;;;;;5076017;28;20553;-46
2021/12/11 08:39:47;;;;;;;55.95;24.40;;;4.10;99.90;;;;;;5075661;28;20215;-46
2021/12/11 08:42:18;;;;;;;59.92;24.48;;;4.20;99.90;;;;;;5075722;28;20166;-47
2021/12/11 08:44:57;;;;;;;56.92;24.80;;;4.20;99.90;;;;;;5075495;28;20170;-45
2021/12/11 08:47:23;;;;;;;60.30;23.23;;;4.20;99.90;;;;;;5075813;28;20685;-46
2021/12/11 08:49:51;;;;;;;55.25;25.90;;;4.20;99.90;;;;;;5075507;28;20300;-46
2021/12/11 08:52:37;;;;;;;56.03;24.20;;;4.20;99.90;;;;;;5075754;28;20170;-46
2021/12/11 08:55:09;;;;;;;48.45;22.42;;;4.20;99.90;;;;;;5074452;28;20192;-45
2021/12/11 08:57:39;;;;;;;59.50;22.83;;;4.20;99.90;;;;;;5075276;28;20630;-44
2021/12/11 09:00:28;;;;;;;52.92;23.20;;;4.20;99.90;;;;;;5075619;28;20181;-45
2021/12/11 09:03:08;;;;;;;47.58;23.08;;;4.20;99.90;;;;;;5075549;28;20175;-46
2021/12/11 09:05:45;;;;;;;54.60;26.88;;;4.30;99.90;;;;;;5075169;28;20166;-45
2021/12/11 09:08:20;;;;;;;53.42;24.35;;;4.30;99.90;;;;;;5073868;28;20182;-45
2021/12/11 09:10:49;;;;;;;50.70;24.15;;;4.30;99.90;;;;;;5074821;28;20260;-45
2021/12/11 09:13:25;;;;;;;55.35;24.48;;;4.40;99.90;;;;;;5075100;28;20189;-45
2021/12/11 09:15:57;;;;;;;51.47;23.70;;;4.30;99.90;;;;;;5074822;28;20253;-50
2021/12/11 09:18:33;;;;;;;48.25;22.13;;;4.30;99.90;;;;;;5075212;28;20162;-49
2021/12/11 09:21:14;;;;;;;53.92;25.02;;;4.30;99.90;;;;;;5073619;28;20169;-50
2021/12/11 09:23:45;;;;;;;52.80;21.00;;;4.40;99.90;;;;;;5074906;28;20256;-46
2021/12/11 09:26:25;;;;;;;46.05;21.58;;;4.40;99.90;;;;;;5074884;28;20169;-46
2021/12/11 09:29:09;;;;;;;46.95;22.40;;;4.50;99.90;;;;;;5073518;28;20216;-45
2021/12/11 09:31:43;;;;;;;47.25;20.42;;;4.50;99.90;;;;;;5072458;28;20525;-45
2021/12/11 09:34:20;;;;;;;43.83;20.20;;;4.50;99.90;;;;;;5072299;28;20626;-45
2021/12/11 09:36:50;;;;;;;49.50;20.92;;;4.60;99.90;;;;;;5074502;28;20169;-46
2021/12/11 09:39:28;;;;;;;44.40;21.92;;;4.50;99.90;;;;;;5074540;28;20257;-48
2021/12/11 09:41:54;;;;;;;50.33;21.95;;;4.60;99.90;;;;;;5074029;28;20158;-47
2021/12/11 09:44:24;;;;;;;47.15;20.67;;;4.60;99.90;;;;;;5074377;28;20166;-47
2021/12/11 09:47:00;;;;;;;46.85;21.48;;;4.60;99.90;;;;;;5074492;28;20166;-49
2021/12/11 09:49:30;;;;;;;44.03;20.48;;;4.60;99.90;;;;;;5074598;28;20204;-49
2021/12/11 09:52:14;;;;;;;51.30;21.63;;;4.60;99.90;;;;;;5074750;28;20543;-48
2021/12/11 09:54:40;;;;;;;41.25;19.48;;;4.60;99.90;;;;;;5074529;28;20162;-47
2021/12/11 09:57:14;;;;;;;42.20;20.38;;;4.60;99.90;;;;;;5074144;28;20510;-46
2021/12/11 09:59:42;;;;;;;41.53;19.60;;;4.70;99.90;;;;;;5074356;28;20166;-46
2021/12/11 10:02:15;;;;;;;36.72;17.45;;;4.70;99.90;;;;;;5074150;28;20172;-48
2021/12/11 10:04:51;;;;;;;41.40;18.23;;;4.70;99.90;;;;;;5074160;28;20166;-48
2021/12/11 10:07:30;;;;;;;41.92;19.00;;;4.80;99.90;;;;;;5074672;28;20169;-49
2021/12/11 10:10:23;;;;;;;40.55;18.30;;;4.80;99.90;;;;;;5074125;28;20715;-48
2021/12/11 10:12:53;;;;;;;39.85;18.67;;;4.90;99.90;;;;;;5072333;28;20174;-47
2021/12/11 10:15:34;;;;;;;42.35;19.58;;;5.00;99.90;;;;;;5073845;28;20280;-48
2021/12/11 10:18:21;;;;;;;40.40;17.52;;;5.00;99.90;;;;;;5074072;28;20178;-49
2021/12/11 10:20:52;;;;;;;41.60;18.20;;;5.00;99.90;;;;;;5073685;28;20200;-48
2021/12/11 10:23:22;;;;;;;40.90;17.50;;;5.00;99.90;;;;;;5073951;28;20185;-47
2021/12/11 10:25:49;;;;;;;37.90;19.40;;;5.00;99.90;;;;;;5073745;28;20196;-48
2021/12/11 10:28:18;;;;;;;38.22;18.58;;;5.10;99.90;;;;;;5073904;28;20514;-48
2021/12/11 10:30:48;;;;;;;30.42;15.10;;;5.10;99.90;;;;;;5073840;28;20205;-48
2021/12/11 10:33:17;;;;;;;35.03;16.25;;;5.20;99.90;;;;;;5073557;28;20181;-49
2021/12/11 10:35:48;;;;;;;35.40;15.73;;;5.20;99.90;;;;;;5073521;28;20211;-47
2021/12/11 10:38:14;;;;;;;35.10;16.90;;;5.30;99.90;;;;;;5073472;28;20165;-48
2021/12/11 10:40:45;;;;;;;36.05;16.20;;;5.30;99.90;;;;;;5073428;28;20162;-48
2021/12/11 10:43:18;;;;;;;26.98;13.25;;;5.40;99.90;;;;;;5073481;28;20556;-48
2021/12/11 10:45:45;;;;;;;32.83;15.45;;;5.40;99.90;;;;;;5073568;28;20174;-49
2021/12/11 10:48:15;;;;;;;29.02;15.43;;;5.50;99.90;;;;;;5071994;28;20170;-46
2021/12/11 10:50:44;;;;;;;25.27;12.50;;;5.50;99.90;;;;;;5073177;28;20684;-47
2021/12/11 10:53:12;;;;;;;27.77;13.98;;;5.60;99.90;;;;;;5073407;28;20174;-47
2021/12/11 10:55:40;;;;;;;34.67;14.45;;;5.60;99.90;;;;;;5073134;28;20173;-47
2021/12/11 10:58:10;;;;;;;29.13;13.05;;;5.80;99.90;;;;;;5072963;28;20210;-47
2021/12/11 11:00:40;;;;;;;28.73;12.93;;;5.80;99.90;;;;;;5073129;28;20174;-46
2021/12/11 11:03:06;;;;;;;27.90;12.60;;;6.00;99.90;;;;;;5072907;28;20170;-47
2021/12/11 11:05:33;;;;;;;28.77;12.68;;;6.00;99.90;;;;;;5071684;28;20162;-46
2021/12/11 11:07:59;;;;;;;20.98;11.27;;;6.00;99.90;;;;;;5072795;28;20248;-48
2021/12/11 11:10:41;;;;;;;20.65;10.27;;;6.00;99.90;;;;;;5073023;28;20309;-47
2021/12/11 11:13:12;;;;;;;17.25;8.95;;;6.00;99.90;;;;;;5072704;28;20169;-45
2021/12/11 11:15:39;;;;;;;26.75;10.43;;;6.10;99.90;;;;;;5072700;28;20513;-45
2021/12/11 11:18:07;;;;;;;16.10;9.52;;;6.10;99.90;;;;;;5071323;28;20177;-46
2021/12/11 11:20:40;;;;;;;16.88;9.55;;;6.10;99.90;;;;;;5072897;28;20173;-46
2021/12/11 11:23:07;;;;;;;20.13;9.35;;;6.10;99.90;;;;;;5071305;28;20170;-47
2021/12/11 11:25:40;;;;;;;16.75;8.38;;;6.10;99.90;;;;;;5072584;28;20162;-46
2021/12/11 11:28:09;;;;;;;20.65;7.95;;;6.10;99.90;;;;;;5072766;28;20177;-46
2021/12/11 11:30:39;;;;;;;13.57;8.10;;;6.20;99.90;;;;;;5072280;28;20213;-47
2021/12/11 11:33:07;;;;;;;17.33;7.97;;;6.20;99.90;;;;;;5072269;28;20231;-46
2021/12/11 11:35:42;;;;;;;17.02;6.80;;;6.20;99.90;;;;;;5072204;28;20170;-47
2021/12/11 11:38:13;;;;;;;13.23;7.15;;;6.20;99.90;;;;;;5072244;28;20181;-46
2021/12/11 11:40:41;;;;;;;16.23;7.15;;;6.20;99.90;;;;;;5072217;28;20170;-47
2021/12/11 11:43:07;;;;;;;17.73;7.57;;;6.30;99.90;;;;;;5072191;28;20169;-46
2021/12/11 11:45:34;;;;;;;19.73;6.13;;;6.30;99.90;;;;;;5072219;28;20289;-47
2021/12/11 11:48:00;;;;;;;11.68;5.80;;;6.40;99.90;;;;;;5072203;28;20166;-46
2021/12/11 11:50:31;;;;;;;17.15;6.70;;;6.40;99.90;;;;;;5072342;28;20292;-46
2021/12/11 11:52:57;;;;;;;15.88;7.03;;;6.40;99.90;;;;;;5072200;28;20245;-45
2021/12/11 11:55:29;;;;;;;14.55;5.95;;;6.40;99.90;;;;;;5072231;28;20593;-45
2021/12/11 11:57:56;;;;;;;11.50;5.35;;;6.50;99.90;;;;;;5072246;28;20192;-45
2021/12/11 12:00:41;;;;;;;14.40;6.15;;;6.40;99.90;;;;;;5072409;28;20223;-46
2021/12/11 12:03:12;;;;;;;16.42;6.32;;;6.50;99.90;;;;;;5072267;28;20307;-46
2021/12/11 12:05:38;;;;;;;12.35;6.20;;;6.60;99.90;;;;;;5071456;28;20185;-46
2021/12/11 12:08:07;;;;;;;8.13;3.90;;;6.60;99.90;;;;;;5072036;28;20563;-45
2021/12/11 12:10:33;;;;;;;11.13;5.50;;;6.60;99.90;;;;;;5071767;28;20221;-46
2021/12/11 12:12:59;;;;;;;16.73;6.20;;;6.60;99.90;;;;;;5071965;28;20169;-46
2021/12/11 12:15:32;;;;;;;15.32;5.95;;;6.60;99.90;;;;;;5072150;28;20166;-45
2021/12/11 12:17:58;;;;;;;10.45;5.88;;;6.60;99.90;;;;;;5070535;28;20220;-48
2021/12/11 12:20:26;;;;;;;10.85;5.03;;;6.60;99.90;;;;;;5072215;28;20170;-47
2021/12/11 12:22:54;;;;;;;15.43;6.05;;;6.70;99.90;;;;;;5072220;28;20173;-46
2021/12/11 12:25:20;;;;;;;22.15;5.75;;;6.70;99.90;;;;;;5071875;28;20170;-47
2021/12/11 12:27:48;;;;;;;12.10;5.50;;;6.70;99.90;;;;;;5071739;28;20169;-46
2021/12/11 12:30:25;;;;;;;17.88;6.30;;;6.70;99.90;;;;;;5071674;28;20669;-46
2021/12/11 12:32:54;;;;;;;14.27;5.35;;;6.80;99.90;;;;;;5071754;28;20563;-46
2021/12/11 12:35:21;;;;;;;12.32;5.57;;;6.70;99.90;;;;;;5071955;28;20176;-47
2021/12/11 12:37:47;;;;;;;12.82;4.90;;;6.80;99.90;;;;;;5071667;28;20239;-45
2021/12/11 12:40:28;;;;;;;13.98;5.38;;;6.80;99.90;;;;;;5071995;28;20174;-47
2021/12/11 12:43:06;;;;;;;11.18;5.93;;;6.80;99.90;;;;;;5072193;28;20169;-47
2021/12/11 12:45:40;;;;;;;14.95;5.70;;;6.90;99.90;;;;;;5071635;28;20166;-46
2021/12/11 12:48:10;;;;;;;12.18;6.05;;;7.00;99.90;;;;;;5071616;28;20264;-45
2021/12/11 12:50:58;;;;;;;10.85;5.45;;;7.00;99.90;;;;;;5071390;28;20688;-46
2021/12/11 12:53:33;;;;;;;12.52;4.30;;;7.00;99.90;;;;;;5072115;28;20260;-46
2021/12/11 12:56:22;;;;;;;14.48;6.60;;;7.00;99.90;;;;;;5071752;28;20166;-48
2021/12/11 12:58:58;;;;;;;7.70;4.28;;;7.00;99.90;;;;;;5071433;28;20166;-46
2021/12/11 13:01:29;;;;;;;11.57;5.43;;;7.10;99.90;;;;;;5071687;28;20165;-48
2021/12/11 13:04:01;;;;;;;8.57;5.43;;;7.10;99.90;;;;;;5071824;28;20215;-47
2021/12/11 13:06:34;;;;;;;15.13;6.38;;;7.10;99.90;;;;;;5071424;28;20170;-47
2021/12/11 13:09:12;;;;;;;11.20;5.97;;;7.20;99.90;;;;;;5071295;28;20230;-47
2021/12/11 13:12:03;;;;;;;10.20;5.10;;;7.30;99.90;;;;;;5071403;28;20162;-47